sensor_id;sensor_type;location;lat;lon;timestamp;P1;durP1;ratioP1;P2;durP2;ratioP2
22219;SDS011;11279;48.364;10.904;2023-10-09T00:00:43;24.27;;;8.55;;
22219;SDS011;11279;48.364;10.904;2023-10-09T00:02:14;23.40;;;9.88;;
22219;SDS011;11279;48.364;10.904;2023-10-09T00:03:32;26.42;;;9.93;;
22219;SDS011;11279;48.364;10.904;2023-10-09T00:04:52;25.65;;;7.93;;
22219;SDS011;11279;48.364;10.904;2023-10-09T00:06:11;25.67;;;9.00;;
22219;SDS011;11279;48.364;10.904;2023-10-09T00:07:33;25.88;;;8.38;;
22219;SDS011;11279;48.364;10.904;2023-10-09T00:08:53;21.70;;;8.68;;
22219;SDS011;11279;48.364;10.904;2023-10-09T00:10:13;22.42;;;7.95;;
22219;SDS011;11279;48.364;10.904;2023-10-09T00:11:32;29.67;;;8.88;;
22219;SDS011;11279;48.364;10.904;2023-10-09T00:12:57;31.48;;;9.13;;
22219;SDS011;11279;48.364;10.904;2023-10-09T00:14:16;24.05;;;8.13;;
22219;SDS011;11279;48.364;10.904;2023-10-09T00:15:37;21.45;;;8.05;;
22219;SDS011;11279;48.364;10.904;2023-10-09T00:16:57;19.65;;;7.93;;
22219;SDS011;11279;48.364;10.904;2023-10-09T00:18:32;25.73;;;8.43;;
22219;SDS011;11279;48.364;10.904;2023-10-09T00:19:52;24.38;;;7.90;;
22219;SDS011;11279;48.364;10.904;2023-10-09T00:21:18;30.08;;;8.73;;
22219;SDS011;11279;48.364;10.904;2023-10-09T00:22:39;29.77;;;10.27;;
22219;SDS011;11279;48.364;10.904;2023-10-09T00:24:04;22.98;;;7.80;;
22219;SDS011;11279;48.364;10.904;2023-10-09T00:25:32;21.83;;;8.80;;
22219;SDS011;11279;48.364;10.904;2023-10-09T00:26:55;26.05;;;8.73;;
22219;SDS011;11279;48.364;10.904;2023-10-09T00:28:49;24.98;;;8.88;;
22219;SDS011;11279;48.364;10.904;2023-10-09T00:30:13;23.95;;;8.18;;
22219;SDS011;11279;48.364;10.904;2023-10-09T00:31:54;28.17;;;8.40;;
22219;SDS011;11279;48.364;10.904;2023-10-09T00:33:32;25.20;;;8.85;;
22219;SDS011;11279;48.364;10.904;2023-10-09T00:34:51;24.85;;;8.05;;
22219;SDS011;11279;48.364;10.904;2023-10-09T00:36:10;24.20;;;8.52;;
22219;SDS011;11279;48.364;10.904;2023-10-09T00:37:30;26.17;;;8.07;;
22219;SDS011;11279;48.364;10.904;2023-10-09T00:38:52;25.73;;;8.13;;
22219;SDS011;11279;48.364;10.904;2023-10-09T00:40:11;30.05;;;7.63;;
22219;SDS011;11279;48.364;10.904;2023-10-09T00:41:31;26.42;;;8.30;;
22219;SDS011;11279;48.364;10.904;2023-10-09T00:42:53;26.90;;;8.95;;
22219;SDS011;11279;48.364;10.904;2023-10-09T00:44:14;22.90;;;7.85;;
22219;SDS011;11279;48.364;10.904;2023-10-09T00:45:33;24.48;;;8.13;;
22219;SDS011;11279;48.364;10.904;2023-10-09T00:46:57;23.13;;;7.88;;
22219;SDS011;11279;48.364;10.904;2023-10-09T00:48:26;24.67;;;8.20;;
22219;SDS011;11279;48.364;10.904;2023-10-09T00:49:54;31.00;;;8.57;;
22219;SDS011;11279;48.364;10.904;2023-10-09T00:51:19;27.17;;;8.50;;
22219;SDS011;11279;48.364;10.904;2023-10-09T00:52:42;25.33;;;8.05;;
22219;SDS011;11279;48.364;10.904;2023-10-09T00:54:07;23.88;;;8.35;;
22219;SDS011;11279;48.364;10.904;2023-10-09T00:55:32;24.67;;;8.70;;
22219;SDS011;11279;48.364;10.904;2023-10-09T00:57:02;26.63;;;8.20;;
22219;SDS011;11279;48.364;10.904;2023-10-09T00:58:25;28.02;;;7.85;;
22219;SDS011;11279;48.364;10.904;2023-10-09T00:59:49;23.42;;;7.72;;
22219;SDS011;11279;48.364;10.904;2023-10-09T01:01:17;24.63;;;9.00;;
22219;SDS011;11279;48.364;10.904;2023-10-09T01:02:36;28.40;;;7.90;;
22219;SDS011;11279;48.364;10.904;2023-10-09T01:04:03;26.63;;;8.20;;
22219;SDS011;11279;48.364;10.904;2023-10-09T01:05:28;25.25;;;8.40;;
22219;SDS011;11279;48.364;10.904;2023-10-09T01:06:48;20.80;;;7.70;;
22219;SDS011;11279;48.364;10.904;2023-10-09T01:08:23;26.75;;;8.10;;
22219;SDS011;11279;48.364;10.904;2023-10-09T01:09:49;31.25;;;8.35;;
22219;SDS011;11279;48.364;10.904;2023-10-09T01:11:14;21.25;;;7.43;;
22219;SDS011;11279;48.364;10.904;2023-10-09T01:12:48;20.98;;;7.07;;
22219;SDS011;11279;48.364;10.904;2023-10-09T01:14:14;25.13;;;8.85;;
22219;SDS011;11279;48.364;10.904;2023-10-09T01:15:34;24.52;;;7.65;;
22219;SDS011;11279;48.364;10.904;2023-10-09T01:17:03;20.52;;;7.20;;
22219;SDS011;11279;48.364;10.904;2023-10-09T01:20:08;23.95;;;7.07;;
22219;SDS011;11279;48.364;10.904;2023-10-09T01:21:35;24.00;;;7.32;;
22219;SDS011;11279;48.364;10.904;2023-10-09T01:22:54;21.58;;;7.28;;
22219;SDS011;11279;48.364;10.904;2023-10-09T01:24:14;29.38;;;8.38;;
22219;SDS011;11279;48.364;10.904;2023-10-09T01:25:34;29.40;;;7.43;;
22219;SDS011;11279;48.364;10.904;2023-10-09T01:27:02;23.90;;;7.13;;
22219;SDS011;11279;48.364;10.904;2023-10-09T01:28:23;26.77;;;7.57;;
22219;SDS011;11279;48.364;10.904;2023-10-09T01:29:43;21.38;;;7.07;;
22219;SDS011;11279;48.364;10.904;2023-10-09T01:31:04;24.10;;;7.97;;
22219;SDS011;11279;48.364;10.904;2023-10-09T01:32:25;26.15;;;7.72;;
22219;SDS011;11279;48.364;10.904;2023-10-09T01:33:45;28.48;;;6.72;;
22219;SDS011;11279;48.364;10.904;2023-10-09T01:35:05;24.83;;;8.35;;
22219;SDS011;11279;48.364;10.904;2023-10-09T01:36:33;29.30;;;7.82;;
22219;SDS011;11279;48.364;10.904;2023-10-09T01:37:52;27.73;;;7.55;;
22219;SDS011;11279;48.364;10.904;2023-10-09T01:39:12;20.98;;;7.13;;
22219;SDS011;11279;48.364;10.904;2023-10-09T01:40:41;22.10;;;7.18;;
22219;SDS011;11279;48.364;10.904;2023-10-09T01:42:02;27.52;;;7.93;;
22219;SDS011;11279;48.364;10.904;2023-10-09T01:43:24;23.92;;;7.60;;
22219;SDS011;11279;48.364;10.904;2023-10-09T01:44:43;26.15;;;8.48;;
22219;SDS011;11279;48.364;10.904;2023-10-09T01:46:02;26.55;;;8.43;;
22219;SDS011;11279;48.364;10.904;2023-10-09T01:47:23;20.52;;;7.53;;
22219;SDS011;11279;48.364;10.904;2023-10-09T01:48:44;24.38;;;7.47;;
22219;SDS011;11279;48.364;10.904;2023-10-09T01:50:05;20.60;;;7.57;;
22219;SDS011;11279;48.364;10.904;2023-10-09T01:51:30;22.88;;;7.38;;
22219;SDS011;11279;48.364;10.904;2023-10-09T01:52:53;25.80;;;7.43;;
22219;SDS011;11279;48.364;10.904;2023-10-09T01:54:11;26.15;;;7.53;;
22219;SDS011;11279;48.364;10.904;2023-10-09T01:55:50;24.02;;;6.82;;
22219;SDS011;11279;48.364;10.904;2023-10-09T01:57:14;25.63;;;7.20;;
22219;SDS011;11279;48.364;10.904;2023-10-09T01:58:34;24.52;;;7.80;;
22219;SDS011;11279;48.364;10.904;2023-10-09T01:59:52;24.98;;;7.30;;
22219;SDS011;11279;48.364;10.904;2023-10-09T02:01:11;28.45;;;7.00;;
22219;SDS011;11279;48.364;10.904;2023-10-09T02:02:31;25.48;;;7.32;;
22219;SDS011;11279;48.364;10.904;2023-10-09T02:03:52;25.73;;;8.18;;
22219;SDS011;11279;48.364;10.904;2023-10-09T02:05:13;26.50;;;7.57;;
22219;SDS011;11279;48.364;10.904;2023-10-09T02:06:52;23.35;;;7.60;;
22219;SDS011;11279;48.364;10.904;2023-10-09T02:08:11;31.42;;;7.88;;
22219;SDS011;11279;48.364;10.904;2023-10-09T02:09:31;24.08;;;7.55;;
22219;SDS011;11279;48.364;10.904;2023-10-09T02:10:51;22.63;;;7.82;;
22219;SDS011;11279;48.364;10.904;2023-10-09T02:12:13;23.95;;;7.45;;
22219;SDS011;11279;48.364;10.904;2023-10-09T02:13:32;24.85;;;7.15;;
22219;SDS011;11279;48.364;10.904;2023-10-09T02:14:54;26.85;;;7.70;;
22219;SDS011;11279;48.364;10.904;2023-10-09T02:16:14;30.08;;;7.88;;
22219;SDS011;11279;48.364;10.904;2023-10-09T02:17:33;21.23;;;7.22;;
22219;SDS011;11279;48.364;10.904;2023-10-09T02:18:52;26.05;;;7.55;;
22219;SDS011;11279;48.364;10.904;2023-10-09T02:20:12;27.63;;;7.78;;
22219;SDS011;11279;48.364;10.904;2023-10-09T02:21:37;24.92;;;7.00;;
22219;SDS011;11279;48.364;10.904;2023-10-09T02:23:00;22.75;;;7.47;;
22219;SDS011;11279;48.364;10.904;2023-10-09T02:24:19;20.00;;;7.03;;
22219;SDS011;11279;48.364;10.904;2023-10-09T02:26:13;24.60;;;6.88;;
22219;SDS011;11279;48.364;10.904;2023-10-09T02:27:59;29.08;;;7.03;;
22219;SDS011;11279;48.364;10.904;2023-10-09T02:29:18;20.17;;;6.50;;
22219;SDS011;11279;48.364;10.904;2023-10-09T02:30:42;19.20;;;6.38;;
22219;SDS011;11279;48.364;10.904;2023-10-09T02:32:05;23.90;;;6.90;;
22219;SDS011;11279;48.364;10.904;2023-10-09T02:33:43;22.30;;;6.88;;
22219;SDS011;11279;48.364;10.904;2023-10-09T02:35:02;25.45;;;7.63;;
22219;SDS011;11279;48.364;10.904;2023-10-09T02:36:29;24.50;;;6.93;;
22219;SDS011;11279;48.364;10.904;2023-10-09T02:37:49;24.33;;;7.13;;
22219;SDS011;11279;48.364;10.904;2023-10-09T02:39:08;21.80;;;6.90;;
22219;SDS011;11279;48.364;10.904;2023-10-09T02:40:41;28.63;;;8.20;;
22219;SDS011;11279;48.364;10.904;2023-10-09T02:42:20;22.45;;;7.13;;
22219;SDS011;11279;48.364;10.904;2023-10-09T02:43:45;28.33;;;7.07;;
22219;SDS011;11279;48.364;10.904;2023-10-09T02:45:09;21.65;;;6.38;;
22219;SDS011;11279;48.364;10.904;2023-10-09T02:46:28;25.60;;;7.10;;
22219;SDS011;11279;48.364;10.904;2023-10-09T02:47:48;22.45;;;7.18;;
22219;SDS011;11279;48.364;10.904;2023-10-09T02:49:06;33.45;;;7.60;;
22219;SDS011;11279;48.364;10.904;2023-10-09T02:50:27;21.27;;;6.60;;
22219;SDS011;11279;48.364;10.904;2023-10-09T02:51:49;25.50;;;7.40;;
22219;SDS011;11279;48.364;10.904;2023-10-09T02:53:11;21.60;;;7.32;;
22219;SDS011;11279;48.364;10.904;2023-10-09T02:54:37;29.42;;;7.35;;
22219;SDS011;11279;48.364;10.904;2023-10-09T02:56:00;22.90;;;7.10;;
22219;SDS011;11279;48.364;10.904;2023-10-09T02:57:31;15.10;;;6.20;;
22219;SDS011;11279;48.364;10.904;2023-10-09T02:58:56;25.25;;;7.20;;
22219;SDS011;11279;48.364;10.904;2023-10-09T03:00:24;21.17;;;6.95;;
22219;SDS011;11279;48.364;10.904;2023-10-09T03:01:49;26.00;;;7.15;;
22219;SDS011;11279;48.364;10.904;2023-10-09T03:03:11;23.15;;;7.70;;
22219;SDS011;11279;48.364;10.904;2023-10-09T03:04:30;23.30;;;6.95;;
22219;SDS011;11279;48.364;10.904;2023-10-09T03:05:49;24.27;;;7.50;;
22219;SDS011;11279;48.364;10.904;2023-10-09T03:07:08;26.10;;;8.00;;
22219;SDS011;11279;48.364;10.904;2023-10-09T03:08:29;24.10;;;7.70;;
22219;SDS011;11279;48.364;10.904;2023-10-09T03:09:48;18.98;;;6.75;;
22219;SDS011;11279;48.364;10.904;2023-10-09T03:11:08;27.80;;;8.18;;
22219;SDS011;11279;48.364;10.904;2023-10-09T03:12:31;30.83;;;7.95;;
22219;SDS011;11279;48.364;10.904;2023-10-09T03:13:51;26.92;;;7.30;;
22219;SDS011;11279;48.364;10.904;2023-10-09T03:15:12;24.23;;;7.78;;
22219;SDS011;11279;48.364;10.904;2023-10-09T03:16:31;35.33;;;8.27;;
22219;SDS011;11279;48.364;10.904;2023-10-09T03:17:49;27.30;;;7.70;;
22219;SDS011;11279;48.364;10.904;2023-10-09T03:19:09;23.90;;;7.15;;
22219;SDS011;11279;48.364;10.904;2023-10-09T03:20:29;24.73;;;7.03;;
22219;SDS011;11279;48.364;10.904;2023-10-09T03:21:49;21.33;;;7.72;;
22219;SDS011;11279;48.364;10.904;2023-10-09T03:23:09;21.63;;;7.20;;
22219;SDS011;11279;48.364;10.904;2023-10-09T03:24:28;22.27;;;7.43;;
22219;SDS011;11279;48.364;10.904;2023-10-09T03:25:48;22.33;;;7.10;;
22219;SDS011;11279;48.364;10.904;2023-10-09T03:27:08;24.67;;;7.47;;
22219;SDS011;11279;48.364;10.904;2023-10-09T03:28:27;25.40;;;7.63;;
22219;SDS011;11279;48.364;10.904;2023-10-09T03:29:46;26.08;;;7.65;;
22219;SDS011;11279;48.364;10.904;2023-10-09T03:31:08;23.35;;;7.15;;
22219;SDS011;11279;48.364;10.904;2023-10-09T03:32:28;24.40;;;7.03;;
22219;SDS011;11279;48.364;10.904;2023-10-09T03:33:47;23.05;;;8.88;;
22219;SDS011;11279;48.364;10.904;2023-10-09T03:35:06;24.33;;;7.65;;
22219;SDS011;11279;48.364;10.904;2023-10-09T03:36:27;21.67;;;7.85;;
22219;SDS011;11279;48.364;10.904;2023-10-09T03:37:47;21.90;;;7.53;;
22219;SDS011;11279;48.364;10.904;2023-10-09T03:39:06;27.20;;;7.28;;
22219;SDS011;11279;48.364;10.904;2023-10-09T03:40:44;21.50;;;7.40;;
22219;SDS011;11279;48.364;10.904;2023-10-09T03:42:06;25.70;;;8.25;;
22219;SDS011;11279;48.364;10.904;2023-10-09T03:43:30;25.65;;;8.15;;
22219;SDS011;11279;48.364;10.904;2023-10-09T03:44:51;23.70;;;7.22;;
22219;SDS011;11279;48.364;10.904;2023-10-09T03:46:16;19.83;;;7.28;;
22219;SDS011;11279;48.364;10.904;2023-10-09T03:47:41;31.02;;;7.65;;
22219;SDS011;11279;48.364;10.904;2023-10-09T03:49:06;26.33;;;7.47;;
22219;SDS011;11279;48.364;10.904;2023-10-09T03:50:29;24.55;;;8.23;;
22219;SDS011;11279;48.364;10.904;2023-10-09T03:51:54;28.20;;;8.00;;
22219;SDS011;11279;48.364;10.904;2023-10-09T03:53:13;22.30;;;7.40;;
22219;SDS011;11279;48.364;10.904;2023-10-09T03:54:32;20.88;;;6.90;;
22219;SDS011;11279;48.364;10.904;2023-10-09T03:55:54;24.45;;;7.05;;
22219;SDS011;11279;48.364;10.904;2023-10-09T03:57:13;31.77;;;7.85;;
22219;SDS011;11279;48.364;10.904;2023-10-09T03:58:41;21.35;;;7.80;;
22219;SDS011;11279;48.364;10.904;2023-10-09T04:00:04;20.45;;;6.85;;
22219;SDS011;11279;48.364;10.904;2023-10-09T04:01:43;20.35;;;6.70;;
22219;SDS011;11279;48.364;10.904;2023-10-09T04:03:02;21.42;;;7.65;;
22219;SDS011;11279;48.364;10.904;2023-10-09T04:04:24;22.75;;;7.63;;
22219;SDS011;11279;48.364;10.904;2023-10-09T04:05:43;23.23;;;7.82;;
22219;SDS011;11279;48.364;10.904;2023-10-09T04:07:02;19.52;;;7.40;;
22219;SDS011;11279;48.364;10.904;2023-10-09T04:08:21;28.48;;;7.80;;
22219;SDS011;11279;48.364;10.904;2023-10-09T04:09:48;24.63;;;7.43;;
22219;SDS011;11279;48.364;10.904;2023-10-09T04:11:13;18.75;;;7.72;;
22219;SDS011;11279;48.364;10.904;2023-10-09T04:12:35;19.73;;;7.97;;
22219;SDS011;11279;48.364;10.904;2023-10-09T04:13:58;20.63;;;8.02;;
22219;SDS011;11279;48.364;10.904;2023-10-09T04:15:19;24.80;;;7.88;;
22219;SDS011;11279;48.364;10.904;2023-10-09T04:16:42;25.13;;;7.70;;
22219;SDS011;11279;48.364;10.904;2023-10-09T04:18:10;21.27;;;7.45;;
22219;SDS011;11279;48.364;10.904;2023-10-09T04:19:40;23.58;;;7.55;;
22219;SDS011;11279;48.364;10.904;2023-10-09T04:21:06;20.77;;;8.00;;
22219;SDS011;11279;48.364;10.904;2023-10-09T04:22:37;22.42;;;7.95;;
22219;SDS011;11279;48.364;10.904;2023-10-09T04:24:15;22.80;;;7.82;;
22219;SDS011;11279;48.364;10.904;2023-10-09T04:25:34;26.80;;;7.68;;
22219;SDS011;11279;48.364;10.904;2023-10-09T04:27:04;28.85;;;8.90;;
22219;SDS011;11279;48.364;10.904;2023-10-09T04:28:23;20.98;;;7.65;;
22219;SDS011;11279;48.364;10.904;2023-10-09T04:29:42;22.38;;;7.68;;
22219;SDS011;11279;48.364;10.904;2023-10-09T04:31:05;23.02;;;8.05;;
22219;SDS011;11279;48.364;10.904;2023-10-09T04:32:25;25.23;;;8.30;;
22219;SDS011;11279;48.364;10.904;2023-10-09T04:33:44;28.75;;;8.77;;
22219;SDS011;11279;48.364;10.904;2023-10-09T04:35:12;27.52;;;7.40;;
22219;SDS011;11279;48.364;10.904;2023-10-09T04:36:38;22.80;;;7.43;;
22219;SDS011;11279;48.364;10.904;2023-10-09T04:38:07;24.70;;;8.93;;
22219;SDS011;11279;48.364;10.904;2023-10-09T04:39:27;26.35;;;8.77;;
22219;SDS011;11279;48.364;10.904;2023-10-09T04:40:49;23.77;;;9.02;;
22219;SDS011;11279;48.364;10.904;2023-10-09T04:42:10;27.08;;;7.60;;
22219;SDS011;11279;48.364;10.904;2023-10-09T04:43:45;27.42;;;8.73;;
22219;SDS011;11279;48.364;10.904;2023-10-09T04:45:05;24.63;;;8.45;;
22219;SDS011;11279;48.364;10.904;2023-10-09T04:46:25;23.48;;;8.15;;
22219;SDS011;11279;48.364;10.904;2023-10-09T04:47:45;25.38;;;8.60;;
22219;SDS011;11279;48.364;10.904;2023-10-09T04:49:25;26.40;;;8.90;;
22219;SDS011;11279;48.364;10.904;2023-10-09T04:50:49;31.50;;;9.60;;
22219;SDS011;11279;48.364;10.904;2023-10-09T04:52:27;26.42;;;9.13;;
22219;SDS011;11279;48.364;10.904;2023-10-09T04:53:49;34.80;;;9.68;;
22219;SDS011;11279;48.364;10.904;2023-10-09T04:55:31;28.85;;;8.55;;
22219;SDS011;11279;48.364;10.904;2023-10-09T04:56:57;22.77;;;8.65;;
22219;SDS011;11279;48.364;10.904;2023-10-09T04:58:15;26.48;;;9.20;;
22219;SDS011;11279;48.364;10.904;2023-10-09T04:59:42;23.55;;;8.75;;
22219;SDS011;11279;48.364;10.904;2023-10-09T05:01:06;25.10;;;8.40;;
22219;SDS011;11279;48.364;10.904;2023-10-09T05:02:31;25.73;;;8.63;;
22219;SDS011;11279;48.364;10.904;2023-10-09T05:03:54;28.58;;;8.77;;
22219;SDS011;11279;48.364;10.904;2023-10-09T05:05:15;22.88;;;9.60;;
22219;SDS011;11279;48.364;10.904;2023-10-09T05:06:54;24.70;;;9.30;;
22219;SDS011;11279;48.364;10.904;2023-10-09T05:08:14;21.73;;;8.75;;
22219;SDS011;11279;48.364;10.904;2023-10-09T05:09:40;28.10;;;9.18;;
22219;SDS011;11279;48.364;10.904;2023-10-09T05:11:14;28.58;;;9.70;;
22219;SDS011;11279;48.364;10.904;2023-10-09T05:12:52;30.58;;;9.18;;
22219;SDS011;11279;48.364;10.904;2023-10-09T05:14:16;26.95;;;8.75;;
22219;SDS011;11279;48.364;10.904;2023-10-09T05:15:36;43.20;;;18.30;;
22219;SDS011;11279;48.364;10.904;2023-10-09T05:16:55;25.80;;;8.48;;
22219;SDS011;11279;48.364;10.904;2023-10-09T05:18:15;26.38;;;10.10;;
22219;SDS011;11279;48.364;10.904;2023-10-09T05:19:34;29.42;;;8.98;;
22219;SDS011;11279;48.364;10.904;2023-10-09T05:21:13;29.08;;;9.05;;
22219;SDS011;11279;48.364;10.904;2023-10-09T05:22:32;26.27;;;8.18;;
22219;SDS011;11279;48.364;10.904;2023-10-09T05:23:57;21.00;;;8.52;;
22219;SDS011;11279;48.364;10.904;2023-10-09T05:25:29;31.52;;;8.95;;
22219;SDS011;11279;48.364;10.904;2023-10-09T05:27:07;23.75;;;8.77;;
22219;SDS011;11279;48.364;10.904;2023-10-09T05:28:38;25.60;;;8.82;;
22219;SDS011;11279;48.364;10.904;2023-10-09T05:30:11;28.73;;;9.05;;
22219;SDS011;11279;48.364;10.904;2023-10-09T05:31:49;26.50;;;8.45;;
22219;SDS011;11279;48.364;10.904;2023-10-09T05:33:26;33.20;;;8.75;;
22219;SDS011;11279;48.364;10.904;2023-10-09T05:34:52;26.83;;;8.90;;
22219;SDS011;11279;48.364;10.904;2023-10-09T05:36:33;19.10;;;7.63;;
22219;SDS011;11279;48.364;10.904;2023-10-09T05:37:53;25.27;;;8.55;;
22219;SDS011;11279;48.364;10.904;2023-10-09T05:39:20;23.95;;;7.80;;
22219;SDS011;11279;48.364;10.904;2023-10-09T05:40:59;22.45;;;7.07;;
22219;SDS011;11279;48.364;10.904;2023-10-09T05:42:38;19.05;;;7.97;;
22219;SDS011;11279;48.364;10.904;2023-10-09T05:44:00;23.17;;;7.50;;
22219;SDS011;11279;48.364;10.904;2023-10-09T05:45:37;25.30;;;7.75;;
22219;SDS011;11279;48.364;10.904;2023-10-09T05:47:35;27.13;;;7.45;;
22219;SDS011;11279;48.364;10.904;2023-10-09T05:48:54;38.03;;;8.40;;
22219;SDS011;11279;48.364;10.904;2023-10-09T05:50:13;27.33;;;7.90;;
22219;SDS011;11279;48.364;10.904;2023-10-09T05:51:32;29.60;;;8.73;;
22219;SDS011;11279;48.364;10.904;2023-10-09T05:53:01;19.55;;;7.40;;
22219;SDS011;11279;48.364;10.904;2023-10-09T05:54:21;30.83;;;7.75;;
22219;SDS011;11279;48.364;10.904;2023-10-09T05:56:02;29.40;;;8.18;;
22219;SDS011;11279;48.364;10.904;2023-10-09T05:57:40;22.77;;;7.35;;
22219;SDS011;11279;48.364;10.904;2023-10-09T05:59:17;25.10;;;7.60;;
22219;SDS011;11279;48.364;10.904;2023-10-09T06:00:59;30.75;;;7.85;;
22219;SDS011;11279;48.364;10.904;2023-10-09T06:02:37;21.13;;;7.05;;
22219;SDS011;11279;48.364;10.904;2023-10-09T06:04:17;30.17;;;7.85;;
22219;SDS011;11279;48.364;10.904;2023-10-09T06:05:37;33.58;;;8.88;;
22219;SDS011;11279;48.364;10.904;2023-10-09T06:06:59;31.73;;;7.90;;
22219;SDS011;11279;48.364;10.904;2023-10-09T06:08:31;26.27;;;7.68;;
22219;SDS011;11279;48.364;10.904;2023-10-09T06:09:59;22.13;;;6.60;;
22219;SDS011;11279;48.364;10.904;2023-10-09T06:11:28;25.40;;;7.22;;
22219;SDS011;11279;48.364;10.904;2023-10-09T06:12:51;24.27;;;7.20;;
22219;SDS011;11279;48.364;10.904;2023-10-09T06:14:22;26.35;;;7.75;;
22219;SDS011;11279;48.364;10.904;2023-10-09T06:16:04;23.95;;;7.47;;
22219;SDS011;11279;48.364;10.904;2023-10-09T06:17:48;26.75;;;7.35;;
22219;SDS011;11279;48.364;10.904;2023-10-09T06:19:11;25.33;;;7.60;;
22219;SDS011;11279;48.364;10.904;2023-10-09T06:20:31;27.90;;;7.88;;
22219;SDS011;11279;48.364;10.904;2023-10-09T06:22:18;25.95;;;7.45;;
22219;SDS011;11279;48.364;10.904;2023-10-09T06:23:56;26.55;;;7.75;;
22219;SDS011;11279;48.364;10.904;2023-10-09T06:25:35;25.83;;;8.25;;
22219;SDS011;11279;48.364;10.904;2023-10-09T06:26:58;26.38;;;8.35;;
22219;SDS011;11279;48.364;10.904;2023-10-09T06:28:17;25.05;;;6.97;;
22219;SDS011;11279;48.364;10.904;2023-10-09T06:29:51;27.05;;;6.88;;
22219;SDS011;11279;48.364;10.904;2023-10-09T06:31:30;24.52;;;6.43;;
22219;SDS011;11279;48.364;10.904;2023-10-09T06:33:09;20.58;;;7.13;;
22219;SDS011;11279;48.364;10.904;2023-10-09T06:34:48;23.77;;;6.82;;
22219;SDS011;11279;48.364;10.904;2023-10-09T06:36:11;25.48;;;7.32;;
22219;SDS011;11279;48.364;10.904;2023-10-09T06:37:36;25.63;;;7.10;;
22219;SDS011;11279;48.364;10.904;2023-10-09T06:38:56;24.75;;;6.57;;
22219;SDS011;11279;48.364;10.904;2023-10-09T06:40:35;23.08;;;7.28;;
22219;SDS011;11279;48.364;10.904;2023-10-09T06:41:55;23.60;;;6.97;;
22219;SDS011;11279;48.364;10.904;2023-10-09T06:43:26;22.33;;;7.65;;
22219;SDS011;11279;48.364;10.904;2023-10-09T06:44:45;21.90;;;6.70;;
22219;SDS011;11279;48.364;10.904;2023-10-09T06:46:16;22.27;;;6.97;;
22219;SDS011;11279;48.364;10.904;2023-10-09T06:47:48;22.63;;;6.65;;
22219;SDS011;11279;48.364;10.904;2023-10-09T06:49:26;23.25;;;7.20;;
22219;SDS011;11279;48.364;10.904;2023-10-09T06:50:48;23.20;;;7.13;;
22219;SDS011;11279;48.364;10.904;2023-10-09T06:52:26;21.08;;;6.03;;
22219;SDS011;11279;48.364;10.904;2023-10-09T06:54:05;24.02;;;6.28;;
22219;SDS011;11279;48.364;10.904;2023-10-09T06:55:28;20.02;;;7.10;;
22219;SDS011;11279;48.364;10.904;2023-10-09T06:57:06;24.02;;;6.28;;
22219;SDS011;11279;48.364;10.904;2023-10-09T06:58:32;19.52;;;5.95;;
22219;SDS011;11279;48.364;10.904;2023-10-09T07:00:06;30.33;;;6.80;;
22219;SDS011;11279;48.364;10.904;2023-10-09T07:01:48;24.85;;;6.95;;
22219;SDS011;11279;48.364;10.904;2023-10-09T07:03:27;22.23;;;6.47;;
22219;SDS011;11279;48.364;10.904;2023-10-09T07:04:51;26.13;;;6.88;;
22219;SDS011;11279;48.364;10.904;2023-10-09T07:06:13;22.75;;;6.47;;
22219;SDS011;11279;48.364;10.904;2023-10-09T07:08:04;24.65;;;6.55;;
22219;SDS011;11279;48.364;10.904;2023-10-09T07:09:42;26.67;;;6.28;;
22219;SDS011;11279;48.364;10.904;2023-10-09T07:11:02;25.90;;;7.13;;
22219;SDS011;11279;48.364;10.904;2023-10-09T07:12:40;28.45;;;7.78;;
22219;SDS011;11279;48.364;10.904;2023-10-09T07:14:03;24.73;;;6.95;;
22219;SDS011;11279;48.364;10.904;2023-10-09T07:15:25;29.75;;;7.82;;
22219;SDS011;11279;48.364;10.904;2023-10-09T07:17:03;28.67;;;7.43;;
22219;SDS011;11279;48.364;10.904;2023-10-09T07:18:34;34.13;;;7.53;;
22219;SDS011;11279;48.364;10.904;2023-10-09T07:20:08;19.90;;;6.38;;
22219;SDS011;11279;48.364;10.904;2023-10-09T07:21:34;22.95;;;5.95;;
22219;SDS011;11279;48.364;10.904;2023-10-09T07:22:54;23.35;;;7.03;;
22219;SDS011;11279;48.364;10.904;2023-10-09T07:24:15;19.25;;;5.95;;
22219;SDS011;11279;48.364;10.904;2023-10-09T07:25:36;23.65;;;5.82;;
22219;SDS011;11279;48.364;10.904;2023-10-09T07:27:00;17.95;;;6.05;;
22219;SDS011;11279;48.364;10.904;2023-10-09T07:28:25;23.02;;;6.43;;
22219;SDS011;11279;48.364;10.904;2023-10-09T07:30:01;25.42;;;6.63;;
22219;SDS011;11279;48.364;10.904;2023-10-09T07:31:22;18.15;;;5.50;;
22219;SDS011;11279;48.364;10.904;2023-10-09T07:32:45;24.85;;;6.78;;
22219;SDS011;11279;48.364;10.904;2023-10-09T07:34:06;19.35;;;5.30;;
22219;SDS011;11279;48.364;10.904;2023-10-09T07:35:46;24.40;;;6.35;;
22219;SDS011;11279;48.364;10.904;2023-10-09T07:37:06;23.50;;;5.50;;
22219;SDS011;11279;48.364;10.904;2023-10-09T07:38:27;25.88;;;6.60;;
22219;SDS011;11279;48.364;10.904;2023-10-09T07:39:54;19.73;;;5.47;;
22219;SDS011;11279;48.364;10.904;2023-10-09T07:41:15;20.35;;;6.20;;
22219;SDS011;11279;48.364;10.904;2023-10-09T07:42:34;24.38;;;6.40;;
22219;SDS011;11279;48.364;10.904;2023-10-09T07:43:59;26.02;;;6.35;;
22219;SDS011;11279;48.364;10.904;2023-10-09T07:45:37;25.80;;;6.30;;
22219;SDS011;11279;48.364;10.904;2023-10-09T07:46:56;19.83;;;5.70;;
22219;SDS011;11279;48.364;10.904;2023-10-09T07:48:34;19.13;;;5.30;;
22219;SDS011;11279;48.364;10.904;2023-10-09T07:50:22;18.88;;;5.30;;
22219;SDS011;11279;48.364;10.904;2023-10-09T07:51:41;24.52;;;6.15;;
22219;SDS011;11279;48.364;10.904;2023-10-09T07:53:05;21.17;;;5.40;;
22219;SDS011;11279;48.364;10.904;2023-10-09T07:54:33;23.55;;;5.90;;
22219;SDS011;11279;48.364;10.904;2023-10-09T07:55:53;23.50;;;5.15;;
22219;SDS011;11279;48.364;10.904;2023-10-09T07:57:24;17.45;;;5.03;;
22219;SDS011;11279;48.364;10.904;2023-10-09T07:58:57;23.27;;;5.75;;
22219;SDS011;11279;48.364;10.904;2023-10-09T08:00:19;22.08;;;5.57;;
22219;SDS011;11279;48.364;10.904;2023-10-09T08:02:07;19.80;;;4.82;;
22219;SDS011;11279;48.364;10.904;2023-10-09T08:03:32;20.20;;;4.95;;
22219;SDS011;11279;48.364;10.904;2023-10-09T08:04:52;24.80;;;5.55;;
22219;SDS011;11279;48.364;10.904;2023-10-09T08:06:14;21.08;;;5.07;;
22219;SDS011;11279;48.364;10.904;2023-10-09T08:07:53;27.17;;;4.72;;
22219;SDS011;11279;48.364;10.904;2023-10-09T08:09:35;18.95;;;4.28;;
22219;SDS011;11279;48.364;10.904;2023-10-09T08:11:30;16.17;;;4.55;;
22219;SDS011;11279;48.364;10.904;2023-10-09T08:12:58;22.10;;;4.93;;
22219;SDS011;11279;48.364;10.904;2023-10-09T08:14:17;18.75;;;5.07;;
22219;SDS011;11279;48.364;10.904;2023-10-09T08:15:39;19.75;;;5.00;;
22219;SDS011;11279;48.364;10.904;2023-10-09T08:17:10;18.58;;;4.68;;
22219;SDS011;11279;48.364;10.904;2023-10-09T08:18:39;19.48;;;4.40;;
22219;SDS011;11279;48.364;10.904;2023-10-09T08:20:03;24.08;;;5.10;;
22219;SDS011;11279;48.364;10.904;2023-10-09T08:21:31;17.17;;;4.82;;
22219;SDS011;11279;48.364;10.904;2023-10-09T08:23:25;21.52;;;5.60;;
22219;SDS011;11279;48.364;10.904;2023-10-09T08:25:03;16.23;;;4.65;;